createdAt,value
2022-12-04T00:01:30.341Z,88.88
2022-12-04T00:04:01.358Z,89.03
2022-12-04T00:06:30.336Z,88.57
2022-12-04T00:08:58.989Z,88.78
2022-12-04T00:11:31.420Z,88.95
2022-12-04T00:14:06.868Z,89.35
2022-12-04T00:16:36.494Z,89.02
2022-12-04T00:19:05.658Z,88.83
2022-12-04T00:21:34.302Z,88.65
2022-12-04T00:24:02.979Z,88.53
2022-12-04T00:26:31.542Z,88.82
2022-12-04T00:29:00.547Z,88.71
2022-12-04T00:31:31.478Z,88.64
2022-12-04T00:34:02.081Z,88.46
2022-12-04T00:36:31.403Z,88.30
2022-12-04T00:39:01.361Z,88.53
2022-12-04T00:41:32.822Z,88.50
2022-12-04T00:44:03.411Z,88.51
2022-12-04T00:46:32.598Z,88.44
2022-12-04T00:49:02.893Z,88.25
2022-12-04T00:51:31.500Z,88.16
2022-12-04T00:54:00.392Z,88.27
2022-12-04T00:56:29.795Z,88.22
2022-12-04T00:59:01.412Z,88.26
2022-12-04T01:01:31.052Z,87.89
2022-12-04T01:04:00.082Z,87.95
2022-12-04T01:06:32.661Z,87.79
2022-12-04T01:09:04.069Z,88.21
2022-12-04T01:11:32.927Z,88.38
2022-12-04T01:14:01.791Z,88.23
2022-12-04T01:16:38.936Z,88.32
2022-12-04T01:19:11.066Z,88.34
2022-12-04T01:21:40.585Z,88.19
2022-12-04T01:24:09.313Z,88.21
2022-12-04T01:26:37.838Z,88.02
2022-12-04T01:29:06.680Z,88.01
2022-12-04T01:31:36.573Z,88.08
2022-12-04T01:34:05.319Z,88.16
2022-12-04T01:36:34.088Z,88.28
2022-12-04T01:39:02.692Z,88.33
2022-12-04T01:41:32.432Z,88.09
2022-12-04T01:44:23.996Z,88.03
2022-12-04T01:47:11.743Z,87.93
2022-12-04T01:49:47.858Z,88.07
2022-12-04T01:52:22.646Z,88.31
2022-12-04T01:54:59.253Z,88.66
2022-12-04T01:57:32.339Z,88.55
2022-12-04T02:00:10.963Z,88.79
2022-12-04T02:02:44.293Z,88.76
2022-12-04T02:05:18.171Z,88.90
2022-12-04T02:07:51.386Z,88.69
2022-12-04T02:10:24.803Z,88.96
2022-12-04T02:13:12.087Z,88.85
2022-12-04T02:15:54.480Z,88.44
2022-12-04T02:19:23.625Z,88.57
2022-12-04T02:21:56.187Z,88.61
2022-12-04T02:24:53.038Z,88.99
2022-12-04T02:27:39.857Z,88.77
2022-12-04T02:30:17.732Z,88.85
2022-12-04T02:32:55.721Z,88.75
2022-12-04T02:35:35.458Z,88.75
2022-12-04T02:38:17.160Z,88.81
2022-12-04T02:41:18.782Z,88.91
2022-12-04T02:44:14.710Z,89.02
2022-12-04T02:46:48.252Z,88.81
2022-12-04T02:49:25.296Z,89.16
2022-12-04T02:51:57.900Z,89.18
2022-12-04T02:54:36.465Z,89.34
2022-12-04T02:57:10.733Z,89.08
2022-12-04T02:59:45.885Z,88.85
2022-12-04T03:02:20.469Z,89.40
2022-12-04T03:04:52.158Z,88.95
2022-12-04T03:07:37.705Z,88.86
2022-12-04T03:10:14.564Z,88.41
2022-12-04T03:13:16.108Z,88.37
2022-12-04T03:16:02.157Z,88.89
2022-12-04T03:18:41.756Z,88.95
2022-12-04T03:21:20.664Z,88.89
2022-12-04T03:24:20.309Z,88.90
2022-12-04T03:26:56.178Z,88.72
2022-12-04T03:29:39.447Z,89.09
2022-12-04T03:32:22.185Z,89.10
2022-12-04T03:34:51.348Z,88.86
2022-12-04T03:37:31.763Z,88.89
2022-12-04T03:40:24.040Z,88.83
2022-12-04T03:43:17.576Z,88.95
2022-12-04T03:45:58.150Z,88.79
2022-12-04T03:48:47.461Z,88.69
2022-12-04T03:51:18.107Z,88.64
2022-12-04T03:53:58.595Z,88.26
2022-12-04T03:56:33.384Z,88.01
2022-12-04T03:59:28.608Z,88.19
2022-12-04T04:02:00.409Z,88.29
2022-12-04T04:04:36.543Z,88.64
2022-12-04T04:07:25.667Z,88.38
2022-12-04T04:10:03.401Z,88.62
2022-12-04T04:12:40.355Z,88.55
2022-12-04T04:15:34.209Z,88.24
2022-12-04T04:18:21.851Z,88.31
2022-12-04T04:21:17.674Z,87.97
2022-12-04T04:24:09.858Z,87.86
2022-12-04T04:26:47.267Z,87.83
2022-12-04T04:29:16.043Z,88.11
2022-12-04T04:32:11.659Z,87.51
2022-12-04T04:35:03.567Z,87.44
2022-12-04T04:37:58.887Z,87.54
2022-12-04T04:40:57.180Z,87.74
2022-12-04T04:43:33.907Z,87.93
2022-12-04T04:46:14.951Z,87.72
2022-12-04T04:48:51.781Z,87.65
2022-12-04T04:51:21.450Z,87.07
2022-12-04T04:53:59.340Z,87.00
2022-12-04T04:56:28.825Z,87.04
2022-12-04T04:58:57.510Z,86.80
2022-12-04T05:01:32.175Z,86.70
2022-12-04T05:04:04.417Z,86.63
2022-12-04T05:06:33.415Z,86.78
2022-12-04T05:09:02.613Z,86.80
2022-12-04T05:11:31.857Z,86.78
2022-12-04T05:14:00.497Z,86.88
2022-12-04T05:16:29.336Z,86.32
2022-12-04T05:19:17.481Z,86.18
2022-12-04T05:21:46.207Z,86.08
2022-12-04T05:24:14.977Z,85.99
2022-12-04T05:26:43.499Z,86.32
2022-12-04T05:29:12.160Z,86.13
2022-12-04T05:31:41.001Z,85.89
2022-12-04T05:34:09.610Z,85.60
2022-12-04T05:36:38.422Z,85.82
2022-12-04T05:39:07.099Z,85.98
2022-12-04T05:41:35.694Z,85.82
2022-12-04T05:44:04.377Z,85.63
2022-12-04T05:46:33.653Z,85.79
2022-12-04T05:49:02.973Z,85.92
2022-12-04T05:51:34.774Z,86.12
2022-12-04T05:54:03.634Z,85.78
2022-12-04T05:56:32.519Z,85.49
2022-12-04T05:59:04.025Z,85.31
2022-12-04T06:01:32.933Z,85.48
2022-12-04T06:04:01.969Z,85.51
2022-12-04T06:06:30.689Z,85.60
2022-12-04T06:09:01.349Z,85.55
2022-12-04T06:11:43.059Z,85.68
2022-12-04T06:14:15.161Z,85.82
2022-12-04T06:16:46.607Z,85.58
2022-12-04T06:19:19.511Z,85.97
2022-12-04T06:21:55.155Z,85.28
2022-12-04T06:24:25.572Z,85.33
2022-12-04T06:29:48.994Z,85.46
2022-12-04T06:32:21.398Z,85.28
2022-12-04T06:35:07.715Z,85.21
2022-12-04T06:37:36.280Z,85.60
2022-12-04T06:40:05.963Z,85.44
2022-12-04T06:42:34.520Z,85.28
2022-12-04T06:45:04.268Z,85.40
2022-12-04T06:47:36.442Z,85.28
2022-12-04T06:50:05.966Z,85.58
2022-12-04T06:52:34.799Z,85.33
2022-12-04T06:55:03.870Z,84.99
2022-12-04T06:57:34.118Z,84.64
2022-12-04T07:00:06.439Z,84.47
2022-12-04T07:02:35.014Z,84.40
2022-12-04T07:05:06.394Z,84.29
2022-12-04T07:07:35.977Z,84.13
2022-12-04T07:10:05.952Z,84.11
2022-12-04T07:12:34.678Z,84.18
2022-12-04T07:15:05.714Z,83.74
2022-12-04T07:17:34.497Z,84.09
2022-12-04T07:20:04.454Z,83.92
2022-12-04T07:22:33.612Z,84.14
2022-12-04T07:25:02.480Z,84.08
2022-12-04T07:27:32.918Z,84.28
2022-12-04T07:30:02.996Z,84.08
2022-12-04T07:32:32.150Z,83.56
2022-12-04T07:35:01.434Z,83.71
2022-12-04T07:37:35.923Z,83.65
2022-12-04T07:40:05.815Z,83.97
2022-12-04T07:42:34.896Z,84.17
2022-12-04T07:45:07.896Z,83.90
2022-12-04T07:47:37.081Z,83.95
2022-12-04T07:50:08.405Z,83.04
2022-12-04T07:52:38.992Z,83.12
2022-12-04T07:55:09.763Z,83.36
2022-12-04T07:57:38.309Z,83.57
2022-12-04T08:00:08.396Z,83.64
2022-12-04T08:02:40.439Z,83.59
2022-12-04T08:05:12.310Z,83.74
2022-12-04T08:07:40.874Z,84.12
2022-12-04T08:10:11.235Z,84.47
2022-12-04T08:12:40.012Z,83.97
2022-12-04T08:15:10.188Z,84.13
2022-12-04T08:17:38.879Z,83.89
2022-12-04T08:20:09.046Z,83.89
2022-12-04T08:22:42.218Z,83.77
2022-12-04T08:25:16.780Z,84.24
2022-12-04T08:27:48.867Z,83.82
2022-12-04T08:30:18.588Z,83.60
2022-12-04T08:32:49.848Z,83.48
2022-12-04T08:35:18.826Z,83.56
2022-12-04T08:37:47.480Z,83.24
2022-12-04T08:40:16.163Z,83.46
2022-12-04T08:42:44.755Z,83.78
2022-12-04T08:45:13.495Z,83.60
2022-12-04T08:47:42.002Z,83.51
2022-12-04T08:50:11.149Z,83.44
2022-12-04T08:52:40.138Z,83.49
2022-12-04T08:55:10.114Z,83.11
2022-12-04T08:57:38.667Z,83.29
2022-12-04T09:00:08.357Z,83.74
2022-12-04T09:02:36.997Z,83.74
2022-12-04T09:05:05.867Z,83.45
2022-12-04T09:07:34.599Z,83.56
2022-12-04T09:10:03.726Z,83.67
2022-12-04T09:12:32.459Z,83.31
2022-12-04T09:15:01.030Z,83.16
2022-12-04T09:17:29.683Z,83.03
2022-12-04T09:20:01.219Z,83.23
2022-12-04T09:22:51.393Z,83.27
2022-12-04T09:25:19.495Z,83.25
2022-12-04T09:27:48.054Z,83.31
2022-12-04T09:30:16.729Z,82.97
2022-12-04T09:32:48.767Z,82.37
2022-12-04T09:35:21.489Z,82.17
2022-12-04T09:37:50.973Z,82.32
2022-12-04T09:40:42.498Z,81.43
2022-12-04T09:43:30.944Z,81.19
2022-12-04T09:46:15.712Z,81.12
2022-12-04T09:48:50.305Z,80.50
2022-12-04T09:51:23.595Z,79.81
2022-12-04T09:54:19.142Z,79.38
2022-12-04T09:57:06.235Z,79.02
2022-12-04T09:59:38.527Z,79.70
2022-12-04T10:02:35.851Z,79.95
2022-12-04T10:05:12.502Z,80.69
2022-12-04T10:08:17.946Z,80.74
2022-12-04T10:11:31.972Z,80.39
2022-12-04T10:14:20.067Z,80.61
2022-12-04T10:17:06.750Z,81.12
2022-12-04T10:20:28.109Z,81.07
2022-12-04T10:23:47.496Z,80.61
2022-12-04T10:26:24.280Z,80.58
2022-12-04T10:29:02.148Z,80.67
2022-12-04T10:31:34.537Z,80.18
2022-12-04T10:34:15.468Z,80.20
2022-12-04T10:36:53.324Z,79.91
2022-12-04T10:39:26.078Z,79.54
2022-12-04T10:42:49.588Z,79.76
2022-12-04T10:45:20.641Z,79.98
2022-12-04T10:47:51.247Z,80.23
2022-12-04T10:50:25.221Z,79.93
2022-12-04T10:52:57.126Z,80.01
2022-12-04T10:55:32.822Z,80.18
2022-12-04T10:58:03.032Z,80.40
2022-12-04T11:00:34.968Z,80.91
2022-12-04T11:03:24.769Z,81.01
2022-12-04T11:05:58.409Z,81.32
2022-12-04T11:08:45.213Z,81.38
2022-12-04T11:11:23.794Z,81.51
2022-12-04T11:14:18.803Z,81.68
2022-12-04T11:17:00.338Z,81.19
2022-12-04T11:19:32.593Z,81.93
2022-12-04T11:22:16.911Z,81.63
2022-12-04T11:24:57.902Z,81.89
2022-12-04T11:27:35.285Z,81.56
2022-12-04T11:30:38.292Z,81.54
2022-12-04T11:33:22.378Z,81.63
2022-12-04T11:35:54.767Z,81.58
2022-12-04T11:38:37.426Z,81.85
2022-12-04T11:41:26.479Z,81.26
2022-12-04T11:44:00.237Z,81.59
2022-12-04T11:46:34.505Z,81.96
2022-12-04T11:49:04.330Z,81.78
2022-12-04T11:51:58.526Z,81.35
2022-12-04T11:55:28.589Z,81.88
2022-12-04T11:58:24.658Z,81.35
2022-12-04T12:01:36.980Z,81.86
2022-12-04T12:05:02.808Z,81.71
2022-12-04T12:08:02.502Z,81.13
2022-12-04T12:10:58.683Z,81.35
2022-12-04T12:14:07.778Z,80.98
2022-12-04T12:17:26.353Z,81.05
2022-12-04T12:20:18.104Z,80.78
2022-12-04T12:23:21.629Z,81.14
2022-12-04T12:26:16.049Z,81.06
2022-12-04T12:29:35.123Z,81.04
2022-12-04T12:32:37.392Z,80.70
2022-12-04T12:35:27.483Z,81.35
2022-12-04T12:38:07.414Z,81.43
2022-12-04T12:40:48.581Z,81.51
2022-12-04T12:43:38.819Z,81.15
2022-12-04T12:46:37.535Z,81.16
2022-12-04T12:49:34.804Z,81.35
2022-12-04T12:52:20.407Z,81.52
2022-12-04T12:55:00.608Z,81.92
2022-12-04T12:57:45.063Z,82.34
2022-12-04T13:00:15.600Z,82.29
2022-12-04T13:03:06.871Z,82.08
2022-12-04T13:05:44.775Z,81.96
2022-12-04T13:08:38.072Z,82.25
2022-12-04T13:11:22.544Z,82.61
2022-12-04T13:14:03.441Z,82.91
2022-12-04T13:17:32.595Z,82.92
2022-12-04T13:20:10.627Z,83.14
2022-12-04T13:23:22.475Z,82.99
2022-12-04T13:26:43.592Z,82.50
2022-12-04T13:29:51.317Z,82.66
2022-12-04T13:32:38.641Z,82.87
2022-12-04T13:35:59.488Z,82.54
2022-12-04T13:39:18.758Z,82.45
2022-12-04T13:41:51.052Z,82.58
2022-12-04T13:44:28.506Z,82.73
2022-12-04T13:47:25.006Z,82.84
2022-12-04T14:00:46.945Z,82.07
2022-12-04T14:03:48.995Z,81.58
2022-12-04T14:06:32.573Z,81.41
2022-12-04T14:09:06.189Z,81.29
2022-12-04T14:11:51.958Z,81.35
2022-12-04T14:15:07.838Z,81.30
2022-12-04T14:17:41.296Z,81.83
2022-12-04T14:20:29.009Z,81.98
2022-12-04T14:23:32.063Z,82.30
2022-12-04T14:26:08.759Z,82.67
2022-12-04T14:28:43.995Z,82.68
2022-12-04T14:31:18.808Z,82.58
2022-12-04T14:34:27.892Z,83.10
2022-12-04T14:36:58.282Z,83.28
2022-12-04T14:39:42.092Z,82.93
2022-12-04T14:42:30.004Z,82.88
2022-12-04T14:45:53.366Z,82.90
2022-12-04T14:49:14.692Z,83.33
2022-12-04T14:52:11.890Z,83.56
2022-12-04T14:55:15.659Z,83.84
2022-12-04T14:58:34.919Z,84.15
2022-12-04T15:01:29.312Z,84.83
2022-12-04T15:04:16.679Z,85.16
2022-12-04T15:06:54.183Z,85.23
2022-12-04T15:09:44.832Z,84.85
2022-12-04T15:12:36.579Z,84.61
2022-12-04T15:15:27.489Z,84.36
2022-12-04T15:18:20.290Z,84.25
2022-12-04T15:20:49.120Z,84.63
2022-12-04T15:23:25.353Z,84.35
2022-12-04T15:26:08.965Z,84.07
2022-12-04T15:28:45.813Z,84.02
2022-12-04T15:31:37.306Z,83.90
2022-12-04T15:34:16.823Z,83.64
2022-12-04T15:36:59.905Z,83.52
2022-12-04T15:39:42.819Z,83.83
2022-12-04T15:42:23.482Z,83.82
2022-12-04T15:44:55.428Z,84.55
2022-12-04T15:47:26.282Z,84.56
2022-12-04T15:49:56.688Z,84.64
2022-12-04T15:52:36.018Z,84.66
2022-12-04T15:55:18.023Z,84.60
2022-12-04T15:58:08.960Z,84.86
2022-12-04T16:00:42.677Z,84.66
2022-12-04T16:03:47.207Z,84.74
2022-12-04T16:06:33.563Z,84.59
2022-12-04T16:09:17.756Z,84.88
2022-12-04T16:12:04.537Z,85.33
2022-12-04T16:14:33.630Z,85.06
2022-12-04T16:17:06.245Z,84.55
2022-12-04T16:19:45.683Z,84.53
2022-12-04T16:25:16.613Z,84.62
2022-12-04T16:27:48.614Z,85.04
2022-12-04T16:30:17.676Z,84.89
2022-12-04T16:32:46.438Z,84.41
2022-12-04T16:35:17.950Z,84.47
2022-12-04T16:37:51.064Z,83.94
2022-12-04T16:40:22.114Z,84.20
2022-12-04T16:42:51.296Z,84.38
2022-12-04T16:45:36.032Z,84.33
2022-12-04T16:48:06.105Z,84.22
2022-12-04T16:50:37.455Z,83.67
2022-12-04T16:53:06.412Z,83.65
2022-12-04T16:55:39.879Z,83.99
2022-12-04T16:58:16.811Z,83.41
2022-12-04T17:00:57.381Z,83.40
2022-12-04T17:06:29.189Z,83.42
2022-12-04T17:08:59.707Z,83.39
2022-12-04T17:11:29.687Z,83.25
2022-12-04T17:13:58.593Z,83.75
2022-12-04T17:16:30.638Z,83.87
2022-12-04T17:19:09.019Z,83.87
2022-12-04T17:21:47.593Z,83.31
2022-12-04T17:27:43.516Z,83.10
2022-12-04T17:30:20.230Z,83.03
2022-12-04T17:32:49.452Z,82.68
2022-12-04T17:35:26.339Z,82.77
2022-12-04T17:38:02.267Z,83.06
2022-12-04T17:40:36.513Z,82.95
2022-12-04T17:43:15.292Z,82.77
2022-12-04T17:46:07.168Z,82.22
2022-12-04T17:48:40.739Z,82.59
2022-12-04T17:51:17.532Z,82.97
2022-12-04T17:53:49.774Z,82.95
2022-12-04T17:56:28.377Z,82.85
2022-12-04T17:59:07.104Z,82.73
2022-12-04T18:01:45.796Z,82.79
2022-12-04T18:04:36.538Z,82.86
2022-12-04T18:07:09.624Z,82.77
2022-12-04T18:09:45.300Z,83.02
2022-12-04T18:12:14.865Z,82.83
2022-12-04T18:14:45.532Z,82.58
2022-12-04T18:17:18.121Z,82.71
2022-12-04T18:19:50.503Z,83.02
2022-12-04T18:22:26.350Z,83.12
2022-12-04T18:24:59.079Z,83.21
2022-12-04T18:27:42.015Z,83.45
2022-12-04T18:30:17.627Z,83.16
2022-12-04T18:32:51.691Z,83.51
2022-12-04T18:35:25.331Z,83.77
2022-12-04T18:37:58.932Z,83.64
2022-12-04T18:40:27.759Z,83.42
2022-12-04T18:42:59.216Z,83.37
2022-12-04T18:45:33.777Z,83.74
2022-12-04T18:48:15.957Z,83.63
2022-12-04T18:50:56.198Z,83.71
2022-12-04T18:53:27.147Z,84.00
2022-12-04T18:55:57.394Z,83.79
2022-12-04T18:58:29.403Z,84.13
2022-12-04T19:01:14.979Z,84.18
2022-12-04T19:03:51.022Z,83.91
2022-12-04T19:06:34.316Z,83.96
2022-12-04T19:09:17.188Z,83.62
2022-12-04T19:11:47.515Z,83.76
2022-12-04T19:14:23.819Z,83.52
2022-12-04T19:16:55.252Z,83.63
2022-12-04T19:19:33.968Z,84.35
2022-12-04T19:22:07.198Z,84.63
2022-12-04T19:24:55.242Z,84.77
2022-12-04T19:27:33.387Z,85.26
2022-12-04T19:30:13.953Z,85.85
2022-12-04T19:32:50.206Z,85.84
2022-12-04T19:35:19.656Z,85.86
2022-12-04T19:37:52.995Z,85.98
2022-12-04T19:40:27.240Z,85.81
2022-12-04T19:43:03.053Z,85.88
2022-12-04T19:45:35.187Z,86.08
2022-12-04T19:48:07.183Z,85.81
2022-12-04T19:50:42.312Z,85.89
2022-12-04T19:53:28.176Z,85.86
2022-12-04T19:56:19.140Z,86.22
2022-12-04T19:58:57.610Z,86.05
2022-12-04T20:01:42.145Z,86.16
2022-12-04T20:04:19.244Z,86.26
2022-12-04T20:06:52.004Z,86.87
2022-12-04T20:09:23.449Z,86.59
2022-12-04T20:11:57.271Z,86.57
2022-12-04T20:14:38.673Z,86.18
2022-12-04T20:17:18.023Z,86.34
2022-12-04T20:19:48.120Z,86.58
2022-12-04T20:22:17.415Z,86.48
2022-12-04T20:24:49.343Z,86.47
2022-12-04T20:27:18.228Z,86.77
2022-12-04T20:29:48.316Z,86.57
2022-12-04T20:32:21.401Z,86.32
2022-12-04T20:34:49.944Z,86.46
2022-12-04T20:37:18.923Z,86.68
2022-12-04T20:39:56.563Z,86.88
2022-12-04T20:42:31.751Z,86.91
2022-12-04T20:45:05.449Z,86.95
2022-12-04T20:47:37.459Z,87.48
2022-12-04T20:50:11.779Z,87.44
2022-12-04T20:52:40.349Z,87.54
2022-12-04T20:55:11.677Z,87.74
2022-12-04T20:57:40.443Z,87.98
2022-12-04T21:00:19.760Z,88.08
2022-12-04T21:02:48.879Z,87.92
2022-12-04T21:05:21.534Z,87.72
2022-12-04T21:07:51.280Z,87.76
2022-12-04T21:10:20.635Z,87.49
2022-12-04T21:13:07.839Z,87.45
2022-12-04T21:15:54.895Z,87.32
2022-12-04T21:18:24.556Z,87.63
2022-12-04T21:20:56.363Z,87.94
2022-12-04T21:23:25.566Z,88.09
2022-12-04T21:25:57.289Z,88.02
2022-12-04T21:28:26.580Z,87.97
2022-12-04T21:31:06.670Z,87.49
2022-12-04T21:33:35.817Z,87.02
2022-12-04T21:36:12.773Z,86.74
2022-12-04T21:38:44.318Z,87.15
2022-12-04T21:41:43.171Z,87.13
2022-12-04T21:44:17.923Z,87.11
2022-12-04T21:46:47.197Z,87.34
2022-12-04T21:49:18.143Z,87.50
2022-12-04T21:53:59.039Z,87.27
2022-12-04T21:56:30.798Z,86.80
2022-12-04T21:59:00.257Z,86.79
2022-12-04T22:01:29.044Z,86.64
2022-12-04T22:04:00.978Z,86.40
2022-12-04T22:06:29.751Z,86.60
2022-12-04T22:08:58.601Z,86.57
2022-12-04T22:11:27.440Z,86.59
2022-12-04T22:13:56.111Z,86.74
2022-12-04T22:16:30.276Z,86.52
2022-12-04T22:19:00.151Z,86.58
2022-12-04T22:21:28.986Z,86.42
2022-12-04T22:24:03.132Z,86.41
2022-12-04T22:26:32.132Z,86.29
2022-12-04T22:29:01.002Z,86.24
2022-12-04T22:31:31.068Z,86.54
2022-12-04T22:34:01.624Z,86.53
2022-12-04T22:36:32.947Z,86.42
2022-12-04T22:39:10.176Z,86.72
2022-12-04T22:41:39.500Z,86.73
2022-12-04T22:44:08.077Z,86.81
2022-12-04T22:46:36.835Z,87.03
2022-12-04T22:49:05.517Z,86.68
2022-12-04T22:51:34.164Z,86.42
2022-12-04T22:54:02.782Z,86.37
2022-12-04T22:56:32.270Z,86.49
2022-12-04T22:59:00.973Z,86.09
2022-12-04T23:01:33.573Z,85.98
2022-12-04T23:04:03.462Z,86.13
2022-12-04T23:06:34.008Z,86.53
2022-12-04T23:09:15.965Z,86.44
2022-12-04T23:11:45.020Z,86.42
2022-12-04T23:14:15.711Z,86.41
2022-12-04T23:16:44.958Z,86.43
2022-12-04T23:19:17.015Z,86.59
2022-12-04T23:21:46.271Z,86.51
2022-12-04T23:24:16.015Z,86.58
2022-12-04T23:26:46.920Z,86.30
2022-12-04T23:29:44.997Z,86.22
2022-12-04T23:32:04.159Z,86.05
2022-12-04T23:34:32.753Z,86.17
2022-12-04T23:37:01.360Z,86.03
2022-12-04T23:39:32.258Z,86.09
2022-12-04T23:42:01.070Z,85.58
2022-12-04T23:44:29.709Z,85.44
2022-12-04T23:46:58.417Z,85.62
2022-12-04T23:49:27.209Z,85.92
2022-12-04T23:51:55.718Z,85.74
2022-12-04T23:54:24.261Z,85.61
2022-12-04T23:56:54.262Z,85.69
2022-12-04T23:59:22.991Z,85.74
